Weather reports worldwide

Advertisment
Glasgow/Intl, United Kingdom (3140): temperature & dewpoint: 19.09.2018 22:00:00 - 25.09.2018 22:00:00 (BST)Glasgow/Intl, United Kingdom (3140): wind speed: 19.09.2018 22:00:00 - 25.09.2018 22:00:00 (BST)Glasgow/Intl, United Kingdom (3140): wind direction: 19.09.2018 22:00:00 - 25.09.2018 22:00:00 (BST)Glasgow/Intl, United Kingdom (3140): visibility: 19.09.2018 22:00:00 - 25.09.2018 22:00:00 (BST)
Date & Time tt [°C] td [°C] ff [km/h] ff [kn] dd vv [km]
25.09.2018 22:00:00 13,0 11,0 34 18 SSW 10
25.09.2018 21:00:00 13,0 11,0 29 16 SSW 10
25.09.2018 20:00:00 12,0 11,0 29 16 S 5
25.09.2018 19:00:00 12,0 11,0 46 25 SSW 4,3
25.09.2018 18:00:00 12,0 10,0 28 15 SSW 4,0
25.09.2018 17:00:00 12,0 9,0 21 11 SSW 10
25.09.2018 16:00:00 12,0 9,0 22 12 SSW 9
25.09.2018 15:00:00 12,0 8,0 21 11 SSW 10
25.09.2018 14:00:00 12,0 7,0 22 12 SSW 10
25.09.2018 13:00:00 13,0 7,0 39 21 SW 10
25.09.2018 12:00:00 13,0 7,0 37 20 SSW 10
25.09.2018 11:00:00 12,0 7,0 42 23 S 10
25.09.2018 10:00:00 11,0 7,0 28 15 S 10
25.09.2018 09:00:00 10,0 6,0 16 9 S 10
25.09.2018 08:00:00 9,0 6,0 9 5 S 10
25.09.2018 07:00:00 7,0 6,0 8 4 SSW 10
25.09.2018 06:00:00 7,0 7,0 11 6 SSW 10
25.09.2018 05:00:00 6,0 6,0 2 1 - 10
25.09.2018 04:00:00 6,0 6,0 2 1 - 10
25.09.2018 03:00:00 6,0 5,0 5 3 N 10
25.09.2018 02:00:00 7,0 6,0 5 3 SSW 10
25.09.2018 01:00:00 7,0 6,0 8 4 SSW 10
25.09.2018 00:00:00 8,0 6,0 8 4 SW 10
24.09.2018 23:00:00 8,0 6,0 9 5 SW 10
24.09.2018 22:00:00 9,0 7,0 9 5 SSW 10
24.09.2018 21:00:00 9,0 7,0 9 5 S 10
24.09.2018 20:00:00 10,0 7,0 13 7 W 10
24.09.2018 19:00:00 10,0 7,0 11 6 WSW 10
24.09.2018 18:00:00 13,0 8,0 15 8 WSW 10
24.09.2018 17:00:00 13,0 8,0 18 10 WSW 10
24.09.2018 16:00:00 12,0 9,0 15 8 WSW 10
24.09.2018 15:00:00 14,0 8,0 22 12 WSW 10
24.09.2018 14:00:00 14,0 8,0 15 8 W 10
24.09.2018 13:00:00 13,0 7,0 22 12 WSW 10
24.09.2018 12:00:00 13,0 6,0 21 11 W 10
24.09.2018 11:00:00 11,0 6,0 21 11 WSW 10
24.09.2018 10:00:00 11,0 7,0 16 9 W 10
24.09.2018 09:00:00 9,0 7,0 13 7 WSW 10
24.09.2018 08:00:00 8,0 6,0 11 6 W 10
24.09.2018 07:00:00 7,0 4,0 11 6 W 10
24.09.2018 06:00:00 7,0 5,0 13 7 W 10
24.09.2018 05:00:00 4,0 3,0 8 4 W 10
24.09.2018 04:00:00 6,0 3,0 16 9 SW 10
24.09.2018 03:00:00 6,0 3,0 8 4 SSW 10
24.09.2018 02:00:00 7,0 3,0 9 5 WNW 10
24.09.2018 01:00:00 7,0 4,0 15 8 WSW 10
24.09.2018 00:00:00 7,0 3,0 13 7 W 10
23.09.2018 23:00:00 7,0 4,0 15 8 W 10
23.09.2018 22:00:00 6,0 3,0 11 6 W 10
23.09.2018 21:00:00 8,0 4,0 8 4 - 10
23.09.2018 20:00:00 9,0 4,0 9 5 W 10
23.09.2018 19:00:00 10,0 4,0 9 5 WSW 10
23.09.2018 18:00:00 12,0 5,0 18 10 W 10
23.09.2018 17:00:00 12,0 4,0 31 17 WNW 10
23.09.2018 16:00:00 13,0 5,0 26 14 WNW 10
23.09.2018 15:00:00 14,0 5,0 24 13 W 10
23.09.2018 14:00:00 13,0 5,0 16 9 WNW 10
23.09.2018 13:00:00 12,0 6,0 16 9 NW 10
23.09.2018 12:00:00 11,0 6,0 16 9 W 10
23.09.2018 11:00:00 11,0 6,0 11 6 WNW 10
23.09.2018 10:00:00 8,0 6,0 8 4 W 10
23.09.2018 09:00:00 6,0 5,0 2 1 - 10
23.09.2018 08:00:00 2,0 2,0 2 1 - 10
23.09.2018 07:00:00 1,0 0,0 5 3 - 10
23.09.2018 06:00:00 1,0 1,0 5 3 W 10
23.09.2018 05:00:00 1,0 1,0 5 3 WSW 10
23.09.2018 04:00:00 3,0 2,0 11 6 W 10
23.09.2018 03:00:00 1,0 1,0 5 3 SW 10
23.09.2018 02:00:00 3,0 2,0 9 5 WSW 10
23.09.2018 01:00:00 3,0 2,0 4 2 SSW 10
23.09.2018 00:00:00 4,0 3,0 2 1 - 10
22.09.2018 23:00:00 3,0 2,0 13 7 SW 10
22.09.2018 22:00:00 5,0 4,0 4 2 - 10
22.09.2018 21:00:00 6,0 3,0 9 5 W 10
22.09.2018 20:00:00 8,0 4,0 9 5 WNW 10
22.09.2018 19:00:00 10,0 5,0 11 6 W 10
22.09.2018 18:00:00 12,0 5,0 15 8 W 10
22.09.2018 17:00:00 12,0 5,0 16 9 WSW 10
22.09.2018 16:00:00 13,0 5,0 16 9 WSW 10
22.09.2018 15:00:00 12,0 5,0 18 10 W 10
22.09.2018 14:00:00 13,0 5,0 24 13 W 10
22.09.2018 13:00:00 10,0 6,0 29 16 W 10
22.09.2018 12:00:00 12,0 6,0 16 9 W 10
22.09.2018 11:00:00 11,0 6,0 15 8 W 10
22.09.2018 10:00:00 10,0 6,0 18 10 WSW 10
22.09.2018 09:00:00 9,0 5,0 21 11 WSW 10
22.09.2018 08:00:00 8,0 5,0 18 10 SSW 10
22.09.2018 07:00:00 8,0 5,0 16 9 WSW 10
22.09.2018 06:00:00 8,0 6,0 15 8 WSW 10
22.09.2018 05:00:00 8,0 6,0 18 10 SW 10
22.09.2018 04:00:00 8,0 6,0 16 9 SSW 10
22.09.2018 03:00:00 7,0 6,0 13 7 SSW 10
22.09.2018 02:00:00 9,0 5,0 18 10 WSW 10
22.09.2018 01:00:00 8,0 5,0 13 7 SW 10
22.09.2018 00:00:00 8,0 5,0 9 5 SSW 10
21.09.2018 23:00:00 7,0 4,0 11 6 WSW 10
21.09.2018 22:00:00 9,0 6,0 15 8 W 8
21.09.2018 21:00:00 9,0 6,0 11 6 WSW 10
21.09.2018 20:00:00 9,0 6,0 15 8 WSW 10
21.09.2018 19:00:00 11,0 6,0 18 10 WSW 10
21.09.2018 18:00:00 12,0 6,0 22 12 W 10
21.09.2018 17:00:00 12,0 7,0 21 11 W 10
21.09.2018 16:00:00 13,0 7,0 34 18 W 10
21.09.2018 15:00:00 12,0 8,0 22 12 W 10
21.09.2018 14:00:00 12,0 8,0 21 11 WNW 10
21.09.2018 13:00:00 12,0 8,0 22 12 W 10
21.09.2018 12:00:00 11,0 9,0 21 11 SW 10
21.09.2018 11:00:00 10,0 7,0 16 9 WSW 10
21.09.2018 10:00:00 9,0 7,0 21 11 W 10
21.09.2018 09:00:00 9,0 7,0 16 9 W 10
21.09.2018 08:00:00 7,0 6,0 9 5 WSW 10
21.09.2018 07:00:00 7,0 6,0 15 8 WSW 10
21.09.2018 06:00:00 7,0 5,0 4 2 - 10
21.09.2018 05:00:00 7,0 6,0 9 5 WSW 10
21.09.2018 04:00:00 7,0 6,0 13 7 W 10
21.09.2018 03:00:00 8,0 7,0 9 5 W 10
21.09.2018 02:00:00 7,0 6,0 9 5 W 10
21.09.2018 01:00:00 8,0 7,0 15 8 WNW 10
21.09.2018 00:00:00 8,0 6,0 4 2 - 10
20.09.2018 23:00:00 8,0 7,0 15 8 NW 10
20.09.2018 22:00:00 9,0 7,0 22 12 WNW 10
20.09.2018 21:00:00 10,0 8,0 4 2 NNW 10
20.09.2018 20:00:00 10,0 7,0 4 2 WSW 10
20.09.2018 19:00:00 11,0 7,0 2 1 - 10
20.09.2018 18:00:00 12,0 8,0 11 6 S 10
20.09.2018 17:00:00 12,0 8,0 18 10 SSW 10
20.09.2018 16:00:00 12,0 8,0 24 13 SSW 10
20.09.2018 15:00:00 13,0 8,0 26 14 SW 10
20.09.2018 14:00:00 13,0 8,0 28 15 SSW 10
20.09.2018 13:00:00 13,0 8,0 28 15 SSW 10
20.09.2018 12:00:00 13,0 8,0 35 19 SW 10
20.09.2018 11:00:00 12,0 8,0 37 20 SW 10
20.09.2018 10:00:00 12,0 8,0 35 19 SW 10
20.09.2018 09:00:00 11,0 7,0 34 18 SW 10
20.09.2018 08:00:00 10,0 7,0 37 20 SW 10
20.09.2018 07:00:00 10,0 6,0 35 19 SW 10
20.09.2018 06:00:00 10,0 7,0 34 18 SW 10
20.09.2018 05:00:00 10,0 7,0 34 18 SW 10
20.09.2018 04:00:00 10,0 7,0 34 18 SW 10
20.09.2018 03:00:00 10,0 6,0 41 22 SW 10
20.09.2018 02:00:00 10,0 6,0 44 24 SSW 10
20.09.2018 01:00:00 10,0 6,0 35 19 SW 10
20.09.2018 00:00:00 10,0 6,0 50 27 SW 10
19.09.2018 23:00:00 11,0 6,0 50 27 SW 10
19.09.2018 22:00:00 10,0 5,0 41 22 SW 10

tt = temperature
td = dewpoint
ff = wind speed
dd = wind direction
vv = visibility

Next stations